Aiken, Texas
Current Conditions -  °F | °C
As of 11:55 PM on Thursday 30 Oct 2014 (Local Time) from KPVW Reporting Station
Clear Clear  
Wind Chill:   Ceiling: Unl
Heat Index:   Visibility: 10mi
Dew Point:   Wind: 5mph
Humidity: 59%   Direction: 360°N
Pressure: 30.34"   Gusts: NA
Location:  34.14°N, 101.53°W
Report Text: KPVW 310455Z AUTO 36004KT 10SM CLR 08/00 A3034 RMK AO2 T00810004
Loading
Personal Weather Stations






























Interactive Weather Map
Tropical Storm Tracking
New forecast layout! Learn more

10-Day Weather Forecast

Advertisements
Track Severe Weather on mobile